sensor_id;sensor_type;location;lat;lon;timestamp;temperature;humidity
78461;SHT31;67755;51.986;5.696;2023-04-03T00:02:03;9.1;49.6
78461;SHT31;67755;51.986;5.696;2023-04-03T00:04:34;9.1;50.1
78461;SHT31;67755;51.986;5.696;2023-04-03T00:07:04;9.1;50.1
78461;SHT31;67755;51.986;5.696;2023-04-03T00:09:33;9.1;50.0
78461;SHT31;67755;51.986;5.696;2023-04-03T00:12:03;9.0;50.5
78461;SHT31;67755;51.986;5.696;2023-04-03T00:14:34;9.0;50.0
78461;SHT31;67755;51.986;5.696;2023-04-03T00:17:04;9.0;50.0
78461;SHT31;67755;51.986;5.696;2023-04-03T00:19:33;9.0;50.3
78461;SHT31;67755;51.986;5.696;2023-04-03T00:22:03;9.0;50.1
78461;SHT31;67755;51.986;5.696;2023-04-03T00:24:32;9.0;49.5
78461;SHT31;67755;51.986;5.696;2023-04-03T00:27:02;8.9;49.3
78461;SHT31;67755;51.986;5.696;2023-04-03T00:29:31;8.9;49.8
78461;SHT31;67755;51.986;5.696;2023-04-03T00:32:02;8.9;50.0
78461;SHT31;67755;51.986;5.696;2023-04-03T00:34:31;8.9;49.4
78461;SHT31;67755;51.986;5.696;2023-04-03T00:37:02;8.9;49.7
78461;SHT31;67755;51.986;5.696;2023-04-03T00:39:32;8.9;49.5
78461;SHT31;67755;51.986;5.696;2023-04-03T00:42:02;8.9;49.4
78461;SHT31;67755;51.986;5.696;2023-04-03T00:47:36;8.8;49.4
78461;SHT31;67755;51.986;5.696;2023-04-03T00:50:08;8.8;49.9
78461;SHT31;67755;51.986;5.696;2023-04-03T00:52:39;8.8;49.1
78461;SHT31;67755;51.986;5.696;2023-04-03T00:55:09;8.8;48.5
78461;SHT31;67755;51.986;5.696;2023-04-03T00:57:40;8.8;49.3
78461;SHT31;67755;51.986;5.696;2023-04-03T01:00:16;8.8;49.9
78461;SHT31;67755;51.986;5.696;2023-04-03T01:02:48;8.7;49.2
78461;SHT31;67755;51.986;5.696;2023-04-03T01:05:20;8.7;50.0
78461;SHT31;67755;51.986;5.696;2023-04-03T01:07:51;8.7;49.4
78461;SHT31;67755;51.986;5.696;2023-04-03T01:10:22;8.7;49.9
78461;SHT31;67755;51.986;5.696;2023-04-03T01:12:53;8.7;49.3
78461;SHT31;67755;51.986;5.696;2023-04-03T01:15:25;8.6;49.8
78461;SHT31;67755;51.986;5.696;2023-04-03T01:17:58;8.6;49.7
78461;SHT31;67755;51.986;5.696;2023-04-03T01:21:00;8.6;49.9
78461;SHT31;67755;51.986;5.696;2023-04-03T01:23:41;8.6;49.7
78461;SHT31;67755;51.986;5.696;2023-04-03T01:26:13;8.5;49.9
78461;SHT31;67755;51.986;5.696;2023-04-03T01:28:43;8.5;50.0
78461;SHT31;67755;51.986;5.696;2023-04-03T01:31:22;8.5;50.3
78461;SHT31;67755;51.986;5.696;2023-04-03T01:33:53;8.5;50.1
78461;SHT31;67755;51.986;5.696;2023-04-03T01:36:25;8.5;50.1
78461;SHT31;67755;51.986;5.696;2023-04-03T01:38:57;8.4;50.1
78461;SHT31;67755;51.986;5.696;2023-04-03T01:41:29;8.4;50.0
78461;SHT31;67755;51.986;5.696;2023-04-03T01:43:59;8.4;50.5
78461;SHT31;67755;51.986;5.696;2023-04-03T01:46:29;8.4;50.5
78461;SHT31;67755;51.986;5.696;2023-04-03T01:48:58;8.4;50.4
78461;SHT31;67755;51.986;5.696;2023-04-03T01:51:28;8.4;50.4
78461;SHT31;67755;51.986;5.696;2023-04-03T01:53:57;8.3;50.5
78461;SHT31;67755;51.986;5.696;2023-04-03T01:56:27;8.3;50.8
78461;SHT31;67755;51.986;5.696;2023-04-03T01:58:56;8.3;51.0
78461;SHT31;67755;51.986;5.696;2023-04-03T02:01:26;8.3;51.2
78461;SHT31;67755;51.986;5.696;2023-04-03T02:03:55;8.2;51.2
78461;SHT31;67755;51.986;5.696;2023-04-03T02:06:25;8.2;51.0
78461;SHT31;67755;51.986;5.696;2023-04-03T02:08:55;8.2;51.2
78461;SHT31;67755;51.986;5.696;2023-04-03T02:11:24;8.2;51.3
78461;SHT31;67755;51.986;5.696;2023-04-03T02:13:54;8.2;51.3
78461;SHT31;67755;51.986;5.696;2023-04-03T02:16:23;8.2;51.5
78461;SHT31;67755;51.986;5.696;2023-04-03T02:18:53;8.1;51.2
78461;SHT31;67755;51.986;5.696;2023-04-03T02:21:24;8.1;51.6
78461;SHT31;67755;51.986;5.696;2023-04-03T02:23:55;8.1;51.3
78461;SHT31;67755;51.986;5.696;2023-04-03T02:26:25;8.1;51.9
78461;SHT31;67755;51.986;5.696;2023-04-03T02:28:55;8.1;52.1
78461;SHT31;67755;51.986;5.696;2023-04-03T02:31:24;8.1;51.8
78461;SHT31;67755;51.986;5.696;2023-04-03T02:33:54;8.1;51.9
78461;SHT31;67755;51.986;5.696;2023-04-03T02:36:23;8.1;51.8
78461;SHT31;67755;51.986;5.696;2023-04-03T02:38:53;8.0;51.8
78461;SHT31;67755;51.986;5.696;2023-04-03T02:41:23;8.0;52.0
78461;SHT31;67755;51.986;5.696;2023-04-03T02:43:55;8.0;52.1
78461;SHT31;67755;51.986;5.696;2023-04-03T02:46:24;8.0;52.1
78461;SHT31;67755;51.986;5.696;2023-04-03T02:48:54;8.0;52.0
78461;SHT31;67755;51.986;5.696;2023-04-03T02:51:25;8.0;52.4
78461;SHT31;67755;51.986;5.696;2023-04-03T02:53:54;8.0;52.4
78461;SHT31;67755;51.986;5.696;2023-04-03T02:56:26;8.0;52.1
78461;SHT31;67755;51.986;5.696;2023-04-03T02:58:55;8.0;52.1
78461;SHT31;67755;51.986;5.696;2023-04-03T03:01:25;7.9;52.2
78461;SHT31;67755;51.986;5.696;2023-04-03T03:03:59;7.9;52.2
78461;SHT31;67755;51.986;5.696;2023-04-03T03:06:30;7.9;52.2
78461;SHT31;67755;51.986;5.696;2023-04-03T03:09:00;7.9;52.8
78461;SHT31;67755;51.986;5.696;2023-04-03T03:11:30;7.9;52.2
78461;SHT31;67755;51.986;5.696;2023-04-03T03:13:59;7.9;52.4
78461;SHT31;67755;51.986;5.696;2023-04-03T03:16:29;7.9;52.4
78461;SHT31;67755;51.986;5.696;2023-04-03T03:18:58;7.9;52.4
78461;SHT31;67755;51.986;5.696;2023-04-03T03:21:28;7.9;52.4
78461;SHT31;67755;51.986;5.696;2023-04-03T03:23:57;7.8;52.7
78461;SHT31;67755;51.986;5.696;2023-04-03T03:26:27;7.8;52.7
78461;SHT31;67755;51.986;5.696;2023-04-03T03:28:57;7.8;52.8
78461;SHT31;67755;51.986;5.696;2023-04-03T03:31:26;7.8;52.5
78461;SHT31;67755;51.986;5.696;2023-04-03T03:33:56;7.8;52.8
78461;SHT31;67755;51.986;5.696;2023-04-03T03:36:25;7.8;52.8
78461;SHT31;67755;51.986;5.696;2023-04-03T03:38:55;7.8;52.6
78461;SHT31;67755;51.986;5.696;2023-04-03T03:41:24;7.7;53.0
78461;SHT31;67755;51.986;5.696;2023-04-03T03:43:54;7.7;52.9
78461;SHT31;67755;51.986;5.696;2023-04-03T03:46:23;7.7;52.9
78461;SHT31;67755;51.986;5.696;2023-04-03T03:48:53;7.7;53.0
78461;SHT31;67755;51.986;5.696;2023-04-03T03:51:22;7.7;53.2
78461;SHT31;67755;51.986;5.696;2023-04-03T03:53:52;7.7;52.6
78461;SHT31;67755;51.986;5.696;2023-04-03T03:56:23;7.7;53.0
78461;SHT31;67755;51.986;5.696;2023-04-03T03:58:53;7.7;53.0
78461;SHT31;67755;51.986;5.696;2023-04-03T04:01:24;7.7;53.1
78461;SHT31;67755;51.986;5.696;2023-04-03T04:03:54;7.6;53.1
78461;SHT31;67755;51.986;5.696;2023-04-03T04:06:24;7.6;53.1
78461;SHT31;67755;51.986;5.696;2023-04-03T04:08:55;7.6;53.1
78461;SHT31;67755;51.986;5.696;2023-04-03T04:11:25;7.6;53.3
78461;SHT31;67755;51.986;5.696;2023-04-03T04:13:55;7.6;53.3
78461;SHT31;67755;51.986;5.696;2023-04-03T04:16:24;7.6;53.5
78461;SHT31;67755;51.986;5.696;2023-04-03T04:18:54;7.6;53.1
78461;SHT31;67755;51.986;5.696;2023-04-03T04:21:23;7.6;53.0
78461;SHT31;67755;51.986;5.696;2023-04-03T04:23:54;7.6;53.3
78461;SHT31;67755;51.986;5.696;2023-04-03T04:26:23;7.5;53.0
78461;SHT31;67755;51.986;5.696;2023-04-03T04:28:53;7.5;53.0
78461;SHT31;67755;51.986;5.696;2023-04-03T04:31:23;7.5;53.0
78461;SHT31;67755;51.986;5.696;2023-04-03T04:33:53;7.5;53.2
78461;SHT31;67755;51.986;5.696;2023-04-03T04:36:22;7.5;53.3
78461;SHT31;67755;51.986;5.696;2023-04-03T04:38:52;7.5;53.0
78461;SHT31;67755;51.986;5.696;2023-04-03T04:41:22;7.5;53.0
78461;SHT31;67755;51.986;5.696;2023-04-03T04:43:52;7.5;53.0
78461;SHT31;67755;51.986;5.696;2023-04-03T04:46:24;7.4;53.1
78461;SHT31;67755;51.986;5.696;2023-04-03T04:48:53;7.4;53.0
78461;SHT31;67755;51.986;5.696;2023-04-03T04:51:23;7.4;53.3
78461;SHT31;67755;51.986;5.696;2023-04-03T04:53:53;7.4;53.5
78461;SHT31;67755;51.986;5.696;2023-04-03T04:56:22;7.4;53.5
78461;SHT31;67755;51.986;5.696;2023-04-03T04:58:52;7.4;53.3
78461;SHT31;67755;51.986;5.696;2023-04-03T05:01:22;7.4;53.3
78461;SHT31;67755;51.986;5.696;2023-04-03T05:03:52;7.3;53.4
78461;SHT31;67755;51.986;5.696;2023-04-03T05:06:21;7.3;53.2
78461;SHT31;67755;51.986;5.696;2023-04-03T05:08:51;7.3;53.5
78461;SHT31;67755;51.986;5.696;2023-04-03T05:11:21;7.3;53.7
78461;SHT31;67755;51.986;5.696;2023-04-03T05:13:51;7.3;53.3
78461;SHT31;67755;51.986;5.696;2023-04-03T05:16:20;7.3;53.6
78461;SHT31;67755;51.986;5.696;2023-04-03T05:18:50;7.3;53.5
78461;SHT31;67755;51.986;5.696;2023-04-03T05:21:19;7.3;53.6
78461;SHT31;67755;51.986;5.696;2023-04-03T05:23:50;7.2;53.5
78461;SHT31;67755;51.986;5.696;2023-04-03T05:26:20;7.2;53.4
78461;SHT31;67755;51.986;5.696;2023-04-03T05:28:50;7.2;53.3
78461;SHT31;67755;51.986;5.696;2023-04-03T05:31:19;7.2;53.5
78461;SHT31;67755;51.986;5.696;2023-04-03T05:33:49;7.2;53.6
78461;SHT31;67755;51.986;5.696;2023-04-03T05:36:21;7.2;53.5
78461;SHT31;67755;51.986;5.696;2023-04-03T05:38:52;7.2;53.5
78461;SHT31;67755;51.986;5.696;2023-04-03T05:41:24;7.2;53.6
78461;SHT31;67755;51.986;5.696;2023-04-03T05:43:53;7.2;53.5
78461;SHT31;67755;51.986;5.696;2023-04-03T05:46:23;7.2;53.7
78461;SHT31;67755;51.986;5.696;2023-04-03T05:48:52;7.2;53.5
78461;SHT31;67755;51.986;5.696;2023-04-03T05:51:24;7.2;53.7
78461;SHT31;67755;51.986;5.696;2023-04-03T05:54:03;7.2;53.6
78461;SHT31;67755;51.986;5.696;2023-04-03T05:56:35;7.2;53.7
78461;SHT31;67755;51.986;5.696;2023-04-03T05:59:04;7.2;54.0
78461;SHT31;67755;51.986;5.696;2023-04-03T06:01:35;7.2;53.6
78461;SHT31;67755;51.986;5.696;2023-04-03T06:04:04;7.2;53.8
78461;SHT31;67755;51.986;5.696;2023-04-03T06:06:50;7.2;53.8
78461;SHT31;67755;51.986;5.696;2023-04-03T06:09:22;7.2;54.0
78461;SHT31;67755;51.986;5.696;2023-04-03T06:11:53;7.1;54.0
78461;SHT31;67755;51.986;5.696;2023-04-03T06:14:23;7.1;53.9
78461;SHT31;67755;51.986;5.696;2023-04-03T06:16:55;7.1;53.8
78461;SHT31;67755;51.986;5.696;2023-04-03T06:19:24;7.1;53.8
78461;SHT31;67755;51.986;5.696;2023-04-03T06:21:56;7.1;53.6
78461;SHT31;67755;51.986;5.696;2023-04-03T06:24:25;7.1;54.2
78461;SHT31;67755;51.986;5.696;2023-04-03T06:26:55;7.1;54.3
78461;SHT31;67755;51.986;5.696;2023-04-03T06:29:25;7.1;53.7
78461;SHT31;67755;51.986;5.696;2023-04-03T06:31:54;7.1;54.1
78461;SHT31;67755;51.986;5.696;2023-04-03T06:34:24;7.1;54.2
78461;SHT31;67755;51.986;5.696;2023-04-03T06:36:54;7.1;53.8
78461;SHT31;67755;51.986;5.696;2023-04-03T06:39:24;7.0;54.1
78461;SHT31;67755;51.986;5.696;2023-04-03T06:41:55;7.0;54.7
78461;SHT31;67755;51.986;5.696;2023-04-03T06:44:26;7.0;54.9
78461;SHT31;67755;51.986;5.696;2023-04-03T06:46:55;7.0;54.6
78461;SHT31;67755;51.986;5.696;2023-04-03T06:49:25;7.1;54.7
78461;SHT31;67755;51.986;5.696;2023-04-03T06:51:55;7.1;54.4
78461;SHT31;67755;51.986;5.696;2023-04-03T06:54:26;7.1;54.1
78461;SHT31;67755;51.986;5.696;2023-04-03T06:56:56;7.1;54.2
78461;SHT31;67755;51.986;5.696;2023-04-03T06:59:25;7.1;53.7
78461;SHT31;67755;51.986;5.696;2023-04-03T07:01:55;7.1;54.0
78461;SHT31;67755;51.986;5.696;2023-04-03T07:04:26;7.1;54.4
78461;SHT31;67755;51.986;5.696;2023-04-03T07:06:55;7.2;54.4
78461;SHT31;67755;51.986;5.696;2023-04-03T07:09:25;7.2;53.4
78461;SHT31;67755;51.986;5.696;2023-04-03T07:11:54;7.2;53.4
78461;SHT31;67755;51.986;5.696;2023-04-03T07:14:24;7.2;52.8
78461;SHT31;67755;51.986;5.696;2023-04-03T07:16:53;7.2;53.4
78461;SHT31;67755;51.986;5.696;2023-04-03T07:19:23;7.2;53.9
78461;SHT31;67755;51.986;5.696;2023-04-03T07:21:55;7.3;52.0
78461;SHT31;67755;51.986;5.696;2023-04-03T07:24:26;7.3;52.7
78461;SHT31;67755;51.986;5.696;2023-04-03T07:26:56;7.3;53.8
78461;SHT31;67755;51.986;5.696;2023-04-03T07:29:25;7.3;53.9
78461;SHT31;67755;51.986;5.696;2023-04-03T07:31:55;7.4;53.8
78461;SHT31;67755;51.986;5.696;2023-04-03T07:34:25;7.4;51.7
78461;SHT31;67755;51.986;5.696;2023-04-03T07:36:55;7.5;51.1
78461;SHT31;67755;51.986;5.696;2023-04-03T07:39:25;7.5;52.0
78461;SHT31;67755;51.986;5.696;2023-04-03T07:41:55;7.5;52.5
78461;SHT31;67755;51.986;5.696;2023-04-03T07:44:24;7.6;52.0
78461;SHT31;67755;51.986;5.696;2023-04-03T07:46:54;7.6;51.2
78461;SHT31;67755;51.986;5.696;2023-04-03T07:49:24;7.7;50.9
78461;SHT31;67755;51.986;5.696;2023-04-03T07:51:54;7.7;50.8
78461;SHT31;67755;51.986;5.696;2023-04-03T07:54:27;7.7;48.4
78461;SHT31;67755;51.986;5.696;2023-04-03T07:56:57;7.8;49.8
78461;SHT31;67755;51.986;5.696;2023-04-03T07:59:27;7.8;49.5
78461;SHT31;67755;51.986;5.696;2023-04-03T08:01:57;7.8;48.3
78461;SHT31;67755;51.986;5.696;2023-04-03T08:04:27;7.9;48.5
78461;SHT31;67755;51.986;5.696;2023-04-03T08:06:57;8.0;49.8
78461;SHT31;67755;51.986;5.696;2023-04-03T08:09:27;8.0;48.5
78461;SHT31;67755;51.986;5.696;2023-04-03T08:11:57;8.1;46.6
78461;SHT31;67755;51.986;5.696;2023-04-03T08:14:26;8.2;47.2
78461;SHT31;67755;51.986;5.696;2023-04-03T08:16:56;8.2;45.7
78461;SHT31;67755;51.986;5.696;2023-04-03T08:19:26;8.3;45.5
78461;SHT31;67755;51.986;5.696;2023-04-03T08:21:56;8.5;44.5
78461;SHT31;67755;51.986;5.696;2023-04-03T08:24:27;8.6;43.3
78461;SHT31;67755;51.986;5.696;2023-04-03T08:26:57;8.6;45.0
78461;SHT31;67755;51.986;5.696;2023-04-03T08:29:27;8.7;40.0
78461;SHT31;67755;51.986;5.696;2023-04-03T08:31:57;8.8;40.1
78461;SHT31;67755;51.986;5.696;2023-04-03T08:34:27;8.9;41.4
78461;SHT31;67755;51.986;5.696;2023-04-03T08:36:57;9.0;39.9
78461;SHT31;67755;51.986;5.696;2023-04-03T08:39:27;9.0;39.2
78461;SHT31;67755;51.986;5.696;2023-04-03T08:41:59;9.1;40.8
78461;SHT31;67755;51.986;5.696;2023-04-03T08:44:40;9.2;37.0
78461;SHT31;67755;51.986;5.696;2023-04-03T08:47:22;9.3;37.6
78461;SHT31;67755;51.986;5.696;2023-04-03T08:49:56;9.4;37.8
78461;SHT31;67755;51.986;5.696;2023-04-03T08:52:35;9.5;36.2
78461;SHT31;67755;51.986;5.696;2023-04-03T08:55:12;9.6;37.7
78461;SHT31;67755;51.986;5.696;2023-04-03T08:57:45;9.7;36.3
78461;SHT31;67755;51.986;5.696;2023-04-03T09:00:20;9.8;34.8
78461;SHT31;67755;51.986;5.696;2023-04-03T09:02:52;9.9;37.0
78461;SHT31;67755;51.986;5.696;2023-04-03T09:05:32;10.1;36.2
78461;SHT31;67755;51.986;5.696;2023-04-03T09:08:14;10.2;35.0
78461;SHT31;67755;51.986;5.696;2023-04-03T09:10:46;10.3;32.7
78461;SHT31;67755;51.986;5.696;2023-04-03T09:13:26;10.4;32.6
78461;SHT31;67755;51.986;5.696;2023-04-03T09:16:04;10.5;32.4
78461;SHT31;67755;51.986;5.696;2023-04-03T09:18:43;10.6;30.9
78461;SHT31;67755;51.986;5.696;2023-04-03T09:21:23;10.7;30.3
78461;SHT31;67755;51.986;5.696;2023-04-03T09:23:58;10.8;30.3
78461;SHT31;67755;51.986;5.696;2023-04-03T09:26:35;10.9;28.1
78461;SHT31;67755;51.986;5.696;2023-04-03T09:29:08;11.0;27.8
78461;SHT31;67755;51.986;5.696;2023-04-03T09:31:43;11.1;26.1
78461;SHT31;67755;51.986;5.696;2023-04-03T09:34:19;11.2;26.8
78461;SHT31;67755;51.986;5.696;2023-04-03T09:36:54;11.2;24.7
78461;SHT31;67755;51.986;5.696;2023-04-03T09:39:26;11.3;26.2
78461;SHT31;67755;51.986;5.696;2023-04-03T09:41:58;11.4;26.7
78461;SHT31;67755;51.986;5.696;2023-04-03T09:44:31;11.4;26.5
78461;SHT31;67755;51.986;5.696;2023-04-03T09:47:19;11.5;25.8
78461;SHT31;67755;51.986;5.696;2023-04-03T09:49:49;11.5;26.0
78461;SHT31;67755;51.986;5.696;2023-04-03T09:52:25;11.6;26.8
78461;SHT31;67755;51.986;5.696;2023-04-03T09:55:07;11.6;27.7
78461;SHT31;67755;51.986;5.696;2023-04-03T09:57:37;11.7;25.2
78461;SHT31;67755;51.986;5.696;2023-04-03T10:00:21;11.7;24.4
78461;SHT31;67755;51.986;5.696;2023-04-03T10:02:55;11.8;24.7
78461;SHT31;67755;51.986;5.696;2023-04-03T10:05:31;11.8;26.1
78461;SHT31;67755;51.986;5.696;2023-04-03T10:08:24;11.8;25.8
78461;SHT31;67755;51.986;5.696;2023-04-03T10:11:09;11.9;25.4
78461;SHT31;67755;51.986;5.696;2023-04-03T10:13:52;11.9;26.5
78461;SHT31;67755;51.986;5.696;2023-04-03T10:16:25;12.0;25.1
78461;SHT31;67755;51.986;5.696;2023-04-03T10:19:05;12.0;23.7
78461;SHT31;67755;51.986;5.696;2023-04-03T10:21:48;12.1;24.0
78461;SHT31;67755;51.986;5.696;2023-04-03T10:24:23;12.1;26.8
78461;SHT31;67755;51.986;5.696;2023-04-03T10:26:59;12.2;26.1
78461;SHT31;67755;51.986;5.696;2023-04-03T10:29:37;12.2;26.5
78461;SHT31;67755;51.986;5.696;2023-04-03T10:32:23;12.3;27.0
78461;SHT31;67755;51.986;5.696;2023-04-03T10:35:06;12.4;26.3
78461;SHT31;67755;51.986;5.696;2023-04-03T10:37:48;12.4;25.3
78461;SHT31;67755;51.986;5.696;2023-04-03T10:40:29;12.5;26.9
78461;SHT31;67755;51.986;5.696;2023-04-03T10:43:06;12.5;25.3
78461;SHT31;67755;51.986;5.696;2023-04-03T10:45:52;12.6;25.0
78461;SHT31;67755;51.986;5.696;2023-04-03T10:48:47;12.6;27.4
78461;SHT31;67755;51.986;5.696;2023-04-03T10:51:24;12.6;26.5
78461;SHT31;67755;51.986;5.696;2023-04-03T10:54:04;12.6;28.3
78461;SHT31;67755;51.986;5.696;2023-04-03T10:56:40;12.7;27.9
78461;SHT31;67755;51.986;5.696;2023-04-03T10:59:21;12.7;28.4
78461;SHT31;67755;51.986;5.696;2023-04-03T11:01:56;12.7;27.8
78461;SHT31;67755;51.986;5.696;2023-04-03T11:04:33;12.8;27.5
78461;SHT31;67755;51.986;5.696;2023-04-03T11:07:10;12.8;27.7
78461;SHT31;67755;51.986;5.696;2023-04-03T11:09:45;12.8;28.1
78461;SHT31;67755;51.986;5.696;2023-04-03T11:12:21;12.9;27.9
78461;SHT31;67755;51.986;5.696;2023-04-03T11:14:56;12.9;28.4
78461;SHT31;67755;51.986;5.696;2023-04-03T11:17:33;13.0;28.4
78461;SHT31;67755;51.986;5.696;2023-04-03T11:20:16;13.0;28.4
78461;SHT31;67755;51.986;5.696;2023-04-03T11:22:52;13.0;28.0
78461;SHT31;67755;51.986;5.696;2023-04-03T11:25:24;13.1;28.1
78461;SHT31;67755;51.986;5.696;2023-04-03T11:27:57;13.1;26.8
78461;SHT31;67755;51.986;5.696;2023-04-03T11:30:33;13.1;27.9
78461;SHT31;67755;51.986;5.696;2023-04-03T11:33:18;13.1;28.4
78461;SHT31;67755;51.986;5.696;2023-04-03T11:35:51;13.1;27.4
78461;SHT31;67755;51.986;5.696;2023-04-03T11:38:27;13.1;27.5
78461;SHT31;67755;51.986;5.696;2023-04-03T11:40:58;13.1;28.6
78461;SHT31;67755;51.986;5.696;2023-04-03T11:43:30;13.2;26.5
78461;SHT31;67755;51.986;5.696;2023-04-03T11:46:02;13.2;26.7
78461;SHT31;67755;51.986;5.696;2023-04-03T11:48:49;13.2;26.9
78461;SHT31;67755;51.986;5.696;2023-04-03T11:52:11;13.2;25.8
78461;SHT31;67755;51.986;5.696;2023-04-03T11:54:50;13.2;26.5
78461;SHT31;67755;51.986;5.696;2023-04-03T11:57:50;13.1;26.8
78461;SHT31;67755;51.986;5.696;2023-04-03T12:00:51;13.1;26.0
78461;SHT31;67755;51.986;5.696;2023-04-03T12:05:28;13.1;26.7
78461;SHT31;67755;51.986;5.696;2023-04-03T12:08:28;13.2;25.5
78461;SHT31;67755;51.986;5.696;2023-04-03T12:11:25;13.2;25.5
78461;SHT31;67755;51.986;5.696;2023-04-03T12:14:12;13.2;28.0
78461;SHT31;67755;51.986;5.696;2023-04-03T12:16:46;13.2;27.3
78461;SHT31;67755;51.986;5.696;2023-04-03T12:19:39;13.2;27.4
78461;SHT31;67755;51.986;5.696;2023-04-03T12:22:19;13.2;27.7
78461;SHT31;67755;51.986;5.696;2023-04-03T12:24:51;13.2;27.8
78461;SHT31;67755;51.986;5.696;2023-04-03T12:27:36;13.3;28.1
78461;SHT31;67755;51.986;5.696;2023-04-03T12:30:22;13.3;28.5
78461;SHT31;67755;51.986;5.696;2023-04-03T12:33:15;13.4;28.4
78461;SHT31;67755;51.986;5.696;2023-04-03T12:36:02;13.4;28.0
78461;SHT31;67755;51.986;5.696;2023-04-03T12:38:55;13.5;26.9
78461;SHT31;67755;51.986;5.696;2023-04-03T12:41:36;13.5;27.2
78461;SHT31;67755;51.986;5.696;2023-04-03T12:46:26;13.6;27.1
78461;SHT31;67755;51.986;5.696;2023-04-03T12:48:59;13.6;27.9
78461;SHT31;67755;51.986;5.696;2023-04-03T12:51:37;13.6;27.6
78461;SHT31;67755;51.986;5.696;2023-04-03T12:54:15;13.7;27.0
78461;SHT31;67755;51.986;5.696;2023-04-03T12:56:47;13.7;28.5
78461;SHT31;67755;51.986;5.696;2023-04-03T12:59:20;13.7;28.6
78461;SHT31;67755;51.986;5.696;2023-04-03T13:01:58;13.8;26.9
78461;SHT31;67755;51.986;5.696;2023-04-03T13:04:31;13.8;25.6
78461;SHT31;67755;51.986;5.696;2023-04-03T13:07:03;13.8;25.9
78461;SHT31;67755;51.986;5.696;2023-04-03T13:09:32;13.8;26.6
78461;SHT31;67755;51.986;5.696;2023-04-03T13:12:11;13.8;27.3
78461;SHT31;67755;51.986;5.696;2023-04-03T13:14:53;13.7;26.8
78461;SHT31;67755;51.986;5.696;2023-04-03T13:17:25;13.7;27.4
78461;SHT31;67755;51.986;5.696;2023-04-03T13:20:14;13.7;27.5
78461;SHT31;67755;51.986;5.696;2023-04-03T13:22:49;13.7;28.0
78461;SHT31;67755;51.986;5.696;2023-04-03T13:25:25;13.8;27.7
78461;SHT31;67755;51.986;5.696;2023-04-03T13:27:58;13.8;28.0
78461;SHT31;67755;51.986;5.696;2023-04-03T13:30:32;13.8;27.8
78461;SHT31;67755;51.986;5.696;2023-04-03T13:33:05;13.8;27.2
78461;SHT31;67755;51.986;5.696;2023-04-03T13:35:38;13.8;26.5
78461;SHT31;67755;51.986;5.696;2023-04-03T13:38:23;13.9;28.7
78461;SHT31;67755;51.986;5.696;2023-04-03T13:40:56;13.9;27.7
78461;SHT31;67755;51.986;5.696;2023-04-03T13:43:30;13.9;28.3
78461;SHT31;67755;51.986;5.696;2023-04-03T13:46:03;13.9;28.2
78461;SHT31;67755;51.986;5.696;2023-04-03T13:48:39;13.9;27.2
78461;SHT31;67755;51.986;5.696;2023-04-03T13:51:21;13.9;28.0
78461;SHT31;67755;51.986;5.696;2023-04-03T13:53:55;13.9;27.2
78461;SHT31;67755;51.986;5.696;2023-04-03T13:56:29;13.9;27.1
78461;SHT31;67755;51.986;5.696;2023-04-03T13:59:04;14.0;27.4
78461;SHT31;67755;51.986;5.696;2023-04-03T14:01:43;14.0;28.4
78461;SHT31;67755;51.986;5.696;2023-04-03T14:04:16;14.0;28.0
78461;SHT31;67755;51.986;5.696;2023-04-03T14:06:47;14.0;26.7
78461;SHT31;67755;51.986;5.696;2023-04-03T14:09:18;14.0;28.2
78461;SHT31;67755;51.986;5.696;2023-04-03T14:11:49;14.0;27.6
78461;SHT31;67755;51.986;5.696;2023-04-03T14:14:23;14.0;27.5
78461;SHT31;67755;51.986;5.696;2023-04-03T14:16:55;14.0;27.3
78461;SHT31;67755;51.986;5.696;2023-04-03T14:19:28;14.0;27.0
78461;SHT31;67755;51.986;5.696;2023-04-03T14:22:10;14.0;27.1
78461;SHT31;67755;51.986;5.696;2023-04-03T14:24:40;13.9;27.9
78461;SHT31;67755;51.986;5.696;2023-04-03T14:27:16;13.9;27.7
78461;SHT31;67755;51.986;5.696;2023-04-03T14:29:49;13.9;27.9
78461;SHT31;67755;51.986;5.696;2023-04-03T14:32:23;13.8;28.5
78461;SHT31;67755;51.986;5.696;2023-04-03T14:34:53;13.8;28.5
78461;SHT31;67755;51.986;5.696;2023-04-03T14:37:26;13.8;27.9
78461;SHT31;67755;51.986;5.696;2023-04-03T14:39:59;13.8;27.6
78461;SHT31;67755;51.986;5.696;2023-04-03T14:42:32;13.8;29.1
78461;SHT31;67755;51.986;5.696;2023-04-03T14:45:04;13.7;28.6
78461;SHT31;67755;51.986;5.696;2023-04-03T14:47:40;13.7;29.7
78461;SHT31;67755;51.986;5.696;2023-04-03T14:50:16;13.7;29.0
78461;SHT31;67755;51.986;5.696;2023-04-03T14:52:50;13.7;29.8
78461;SHT31;67755;51.986;5.696;2023-04-03T14:55:23;13.7;28.4
78461;SHT31;67755;51.986;5.696;2023-04-03T14:57:53;13.7;28.6
78461;SHT31;67755;51.986;5.696;2023-04-03T15:00:23;13.7;29.8
78461;SHT31;67755;51.986;5.696;2023-04-03T15:02:53;13.7;29.6
78461;SHT31;67755;51.986;5.696;2023-04-03T15:05:22;13.6;30.0
78461;SHT31;67755;51.986;5.696;2023-04-03T15:07:54;13.6;30.1
78461;SHT31;67755;51.986;5.696;2023-04-03T15:10:26;13.6;30.4
78461;SHT31;67755;51.986;5.696;2023-04-03T15:12:56;13.6;29.7
78461;SHT31;67755;51.986;5.696;2023-04-03T15:15:31;13.6;30.4
78461;SHT31;67755;51.986;5.696;2023-04-03T15:18:03;13.6;30.1
78461;SHT31;67755;51.986;5.696;2023-04-03T15:20:33;13.6;30.0
78461;SHT31;67755;51.986;5.696;2023-04-03T15:23:05;13.5;30.1
78461;SHT31;67755;51.986;5.696;2023-04-03T15:25:37;13.5;30.6
78461;SHT31;67755;51.986;5.696;2023-04-03T15:28:09;13.5;30.4
78461;SHT31;67755;51.986;5.696;2023-04-03T15:30:39;13.4;30.4
78461;SHT31;67755;51.986;5.696;2023-04-03T15:33:10;13.4;31.0
78461;SHT31;67755;51.986;5.696;2023-04-03T15:35:39;13.4;31.0
78461;SHT31;67755;51.986;5.696;2023-04-03T15:38:09;13.3;31.4
78461;SHT31;67755;51.986;5.696;2023-04-03T15:40:39;13.3;29.7
78461;SHT31;67755;51.986;5.696;2023-04-03T15:43:10;13.3;31.7
78461;SHT31;67755;51.986;5.696;2023-04-03T15:45:40;13.2;30.6
78461;SHT31;67755;51.986;5.696;2023-04-03T15:48:11;13.2;30.4
78461;SHT31;67755;51.986;5.696;2023-04-03T15:50:42;13.1;30.9
78461;SHT31;67755;51.986;5.696;2023-04-03T15:53:11;13.1;31.2
78461;SHT31;67755;51.986;5.696;2023-04-03T15:55:42;13.1;30.6
78461;SHT31;67755;51.986;5.696;2023-04-03T15:58:12;13.0;30.9
78461;SHT31;67755;51.986;5.696;2023-04-03T16:00:43;13.0;31.9
78461;SHT31;67755;51.986;5.696;2023-04-03T16:03:17;13.0;32.6
78461;SHT31;67755;51.986;5.696;2023-04-03T16:05:47;13.0;33.4
78461;SHT31;67755;51.986;5.696;2023-04-03T16:08:19;13.0;32.4
78461;SHT31;67755;51.986;5.696;2023-04-03T16:10:51;13.0;32.1
78461;SHT31;67755;51.986;5.696;2023-04-03T16:13:20;13.0;31.6
78461;SHT31;67755;51.986;5.696;2023-04-03T16:15:50;13.0;32.5
78461;SHT31;67755;51.986;5.696;2023-04-03T16:18:20;13.0;32.2
78461;SHT31;67755;51.986;5.696;2023-04-03T16:20:50;13.0;31.9
78461;SHT31;67755;51.986;5.696;2023-04-03T16:23:19;12.9;31.0
78461;SHT31;67755;51.986;5.696;2023-04-03T16:25:49;12.9;31.7
78461;SHT31;67755;51.986;5.696;2023-04-03T16:28:19;12.9;32.2
78461;SHT31;67755;51.986;5.696;2023-04-03T16:30:49;12.8;30.9
78461;SHT31;67755;51.986;5.696;2023-04-03T16:33:18;12.8;31.9
78461;SHT31;67755;51.986;5.696;2023-04-03T16:35:49;12.8;31.3
78461;SHT31;67755;51.986;5.696;2023-04-03T16:38:19;12.7;31.8
78461;SHT31;67755;51.986;5.696;2023-04-03T16:40:49;12.7;31.4
78461;SHT31;67755;51.986;5.696;2023-04-03T16:43:19;12.6;32.9
78461;SHT31;67755;51.986;5.696;2023-04-03T16:45:49;12.6;33.2
78461;SHT31;67755;51.986;5.696;2023-04-03T16:48:20;12.5;32.7
78461;SHT31;67755;51.986;5.696;2023-04-03T16:50:50;12.5;33.4
78461;SHT31;67755;51.986;5.696;2023-04-03T16:53:21;12.5;32.5
78461;SHT31;67755;51.986;5.696;2023-04-03T16:55:51;12.4;32.6